Time;durP1;ratioP1;P1;durP2;ratioP2;P2;SDS_P1;SDS_P2;PMS_P1;PMS_P2;Temp;Humidity;BMP_temperature;BMP_pressure;BME280_temperature;BME280_humidity;BME280_pressure;Samples;Min_cycle;Max_cycle;Signal;HPM_P1;HPM_P2
2021/04/13 00:02:14;;;;;;;2.53;2.05;;;22.90;25.20;;;;;;5018967;28;20029;-54
2021/04/13 00:04:41;;;;;;;2.97;1.83;;;22.90;25.30;;;;;;5019225;28;20022;-55
2021/04/13 00:07:08;;;;;;;3.45;2.00;;;22.90;25.30;;;;;;5017773;28;20165;-54
2021/04/13 00:09:34;;;;;;;2.83;1.58;;;22.80;25.20;;;;;;5029986;28;21689;-55
2021/04/13 00:12:13;;;;;;;2.40;1.70;;;22.80;25.30;;;;;;5022170;28;20038;-55
2021/04/13 00:14:44;;;;;;;2.25;1.35;;;22.80;25.30;;;;;;5017949;28;20095;-53
2021/04/13 00:17:13;;;;;;;2.58;1.55;;;22.80;25.30;;;;;;5017657;28;20060;-52
2021/04/13 00:20:09;;;;;;;2.63;1.65;;;22.80;25.30;;;;;;5017790;28;20404;-54
2021/04/13 00:22:36;;;;;;;2.20;1.15;;;22.80;25.30;;;;;;5013602;28;20034;-54
2021/04/13 00:25:03;;;;;;;2.40;1.40;;;22.80;25.30;;;;;;5028234;28;20472;-53
2021/04/13 00:27:31;;;;;;;2.67;1.30;;;22.80;25.30;;;;;;5017442;28;20033;-54
2021/04/13 00:30:26;;;;;;;2.72;1.15;;;22.80;25.40;;;;;;5029254;28;20029;-53
2021/04/13 00:33:04;;;;;;;3.15;1.70;;;22.80;25.30;;;;;;5025274;28;20054;-51
2021/04/13 00:35:59;;;;;;;2.50;1.35;;;22.70;25.40;;;;;;5019592;28;20034;-53
2021/04/13 00:38:30;;;;;;;;;;;22.70;25.40;;;;;;5016675;28;20138;-55
2021/04/13 00:41:10;;;;;;;2.00;1.35;;;22.70;25.40;;;;;;5017017;28;19917;-51
2021/04/13 00:43:41;;;;;;;2.70;1.13;;;22.70;25.40;;;;;;5016023;28;20113;-58
2021/04/13 00:46:07;;;;;;;2.00;1.17;;;22.70;25.40;;;;;;5020914;28;20032;-55
2021/04/13 00:48:36;;;;;;;2.42;1.20;;;22.70;25.40;;;;;;5027285;28;20100;-50
2021/04/13 00:51:12;;;;;;;1.90;1.08;;;22.70;25.40;;;;;;5044247;28;20126;-55
2021/04/13 00:53:39;;;;;;;1.45;1.02;;;22.70;25.40;;;;;;5018079;28;20045;-54
2021/04/13 00:56:09;;;;;;;2.03;1.10;;;22.70;25.40;;;;;;5037144;28;20048;-53
2021/04/13 00:58:45;;;;;;;2.30;1.00;;;22.70;25.40;;;;;;5036620;28;20041;-53
2021/04/13 01:01:20;;;;;;;1.77;1.00;;;22.60;25.40;;;;;;5044161;28;20044;-54
2021/04/13 01:03:54;;;;;;;0.90;0.80;;;22.70;25.40;;;;;;5044436;28;20025;-52
2021/04/13 01:06:23;;;;;;;2.03;1.30;;;22.60;25.40;;;;;;5046031;28;20025;-54
2021/04/13 01:09:04;;;;;;;1.77;0.90;;;22.60;25.40;;;;;;5055378;28;20041;-53
2021/04/13 01:11:37;;;;;;;1.83;1.00;;;22.60;25.40;;;;;;5044220;28;20040;-53
2021/04/13 01:14:03;;;;;;;1.40;0.93;;;22.60;25.40;;;;;;5041309;28;20431;-54
2021/04/13 01:16:56;;;;;;;2.03;0.90;;;22.60;25.50;;;;;;5040067;28;20095;-53
2021/04/13 01:19:47;;;;;;;1.60;0.98;;;22.60;26.00;;;;;;5049728;28;20044;-55
2021/04/13 01:22:26;;;;;;;1.52;0.77;;;22.60;25.50;;;;;;5045656;28;20045;-56
2021/04/13 01:24:58;;;;;;;1.73;1.10;;;22.60;25.60;;;;;;5043876;28;20033;-51
2021/04/13 01:27:24;;;;;;;1.88;0.93;;;22.50;25.50;;;;;;5036489;28;20219;-55
2021/04/13 01:29:52;;;;;;;1.90;0.90;;;22.60;25.60;;;;;;5035128;28;20025;-52
2021/04/13 01:32:18;;;;;;;1.30;0.70;;;22.50;25.50;;;;;;5039538;28;20048;-54
2021/04/13 01:34:58;;;;;;;1.73;0.90;;;22.50;25.50;;;;;;5038520;28;20029;-54
2021/04/13 01:40:18;;;;;;;1.17;0.77;;;22.50;25.60;;;;;;5031234;28;20364;-54
2021/04/13 01:42:47;;;;;;;1.33;0.77;;;22.50;25.50;;;;;;5052066;28;20029;-52
2021/04/13 01:45:25;;;;;;;1.00;0.70;;;22.50;25.50;;;;;;5038939;28;20047;-49
2021/04/13 01:47:52;;;;;;;1.00;0.75;;;22.50;25.60;;;;;;5053809;28;20025;-55
2021/04/13 01:50:29;;;;;;;1.42;0.68;;;22.50;25.60;;;;;;5042245;28;20104;-51
2021/04/13 01:53:14;;;;;;;1.23;0.80;;;22.50;25.60;;;;;;5049453;28;20037;-50
2021/04/13 01:55:47;;;;;;;;;;;22.50;25.60;;;;;;5042614;28;20120;-56
2021/04/13 01:58:26;;;;;;;2.17;0.85;;;22.40;25.50;;;;;;5035882;28;20010;-55
2021/04/13 02:01:01;;;;;;;0.47;0.47;;;22.40;25.60;;;;;;5042248;28;20056;-57
2021/04/13 02:03:42;;;;;;;0.88;0.60;;;22.40;25.60;;;;;;5044204;28;20437;-55
2021/04/13 02:06:16;;;;;;;1.13;0.68;;;22.40;25.60;;;;;;5039984;28;20029;-54
2021/04/13 02:08:50;;;;;;;0.93;0.50;;;22.40;25.60;;;;;;5050425;28;20029;-57
2021/04/13 02:11:22;;;;;;;1.77;0.60;;;22.40;25.60;;;;;;5052647;28;20055;-52
2021/04/13 02:13:52;;;;;;;2.03;0.70;;;22.40;25.60;;;;;;5041745;28;20050;-55
2021/04/13 02:16:50;;;;;;;1.08;0.70;;;22.40;25.60;;;;;;5039731;28;20507;-54
2021/04/13 02:19:17;;;;;;;0.90;0.70;;;22.40;25.60;;;;;;5044992;28;20028;-55
2021/04/13 02:21:50;;;;;;;1.02;0.75;;;22.40;25.60;;;;;;5054591;28;20036;-56
2021/04/13 02:24:20;;;;;;;1.35;0.75;;;22.40;25.60;;;;;;5050316;28;20029;-53
2021/04/13 02:26:49;;;;;;;1.55;0.70;;;22.40;25.60;;;;;;5042221;28;20401;-48
2021/04/13 02:29:18;;;;;;;1.67;0.82;;;22.40;25.70;;;;;;5019481;28;20488;-48
2021/04/13 02:31:52;;;;;;;1.75;0.70;;;22.40;25.70;;;;;;5024255;28;20037;-46
2021/04/13 02:34:27;;;;;;;1.75;0.80;;;22.40;25.70;;;;;;5052637;28;20039;-50
2021/04/13 02:36:59;;;;;;;0.80;0.60;;;22.30;25.60;;;;;;5053072;28;20433;-48
2021/04/13 02:39:29;;;;;;;1.45;0.60;;;22.30;25.60;;;;;;5050234;28;20083;-53
2021/04/13 02:42:07;;;;;;;1.38;0.77;;;22.30;25.60;;;;;;5040333;28;20032;-58
2021/04/13 02:44:33;;;;;;;1.50;0.70;;;22.30;26.20;;;;;;5033822;28;20037;-54
2021/04/13 02:47:05;;;;;;;1.10;0.60;;;22.30;25.60;;;;;;5038225;28;20095;-53
2021/04/13 02:49:32;;;;;;;1.30;0.68;;;22.30;25.70;;;;;;5035480;28;20088;-54
2021/04/13 02:52:01;;;;;;;1.13;0.60;;;22.30;25.70;;;;;;5042354;28;20110;-51
2021/04/13 02:54:48;;;;;;;0.80;0.45;;;22.30;25.60;;;;;;5046773;28;20091;-51
2021/04/13 02:57:22;;;;;;;0.75;0.50;;;22.30;25.70;;;;;;5052256;28;20049;-48
2021/04/13 02:59:49;;;;;;;1.05;0.55;;;22.30;25.70;;;;;;5051112;28;20044;-50
2021/04/13 03:02:37;;;;;;;2.13;1.05;;;22.20;25.60;;;;;;5039268;28;20047;-49
2021/04/13 03:05:05;;;;;;;0.80;0.40;;;22.30;25.70;;;;;;5047913;28;20047;-49
2021/04/13 03:07:32;;;;;;;0.95;0.52;;;22.20;25.70;;;;;;5057326;28;20037;-52
2021/04/13 03:10:08;;;;;;;1.73;0.60;;;22.20;25.70;;;;;;5037522;28;20554;-53
2021/04/13 03:12:39;;;;;;;1.05;0.52;;;22.30;25.70;;;;;;5041358;28;20048;-54
2021/04/13 03:15:07;;;;;;;0.75;0.52;;;22.20;25.70;;;;;;5037868;28;20060;-55
2021/04/13 03:17:36;;;;;;;1.00;0.60;;;22.20;25.70;;;;;;5023365;28;20048;-55
2021/04/13 03:20:09;;;;;;;1.15;0.50;;;22.20;25.70;;;;;;5048785;28;20034;-56
2021/04/13 03:22:38;;;;;;;0.98;0.60;;;22.20;25.70;;;;;;5037388;28;20453;-53
2021/04/13 03:25:06;;;;;;;0.93;0.60;;;22.20;25.70;;;;;;5026366;28;20103;-58
2021/04/13 03:27:35;;;;;;;0.98;0.43;;;22.20;25.70;;;;;;5056793;28;20033;-58
2021/04/13 03:30:22;;;;;;;0.63;0.47;;;22.20;25.70;;;;;;5048034;28;20475;-57
2021/04/13 03:32:56;;;;;;;0.82;0.55;;;22.20;25.70;;;;;;5053945;28;20033;-55
2021/04/13 03:35:23;;;;;;;;;;;22.10;25.70;;;;;;5049813;28;20032;-54
2021/04/13 03:37:50;;;;;;;0.63;0.40;;;22.10;25.70;;;;;;5057150;28;19905;-58
2021/04/13 03:40:21;;;;;;;1.13;0.40;;;22.10;25.80;;;;;;5052604;28;20068;-54
2021/04/13 03:42:53;;;;;;;0.93;0.52;;;22.10;25.80;;;;;;5040226;28;20037;-59
2021/04/13 03:45:19;;;;;;;1.10;0.50;;;22.10;25.80;;;;;;5054111;28;20183;-56
2021/04/13 03:47:46;;;;;;;1.13;0.50;;;22.10;25.80;;;;;;5055117;28;20079;-53
2021/04/13 03:53:46;;;;;;;0.95;0.52;;;22.10;25.80;;;;;;5049679;28;20041;-50
2021/04/13 03:56:18;;;;;;;0.90;0.30;;;22.10;25.80;;;;;;5035383;28;20042;-57
2021/04/13 03:58:46;;;;;;;0.55;0.35;;;22.10;25.80;;;;;;5050713;28;20034;-53
2021/04/13 04:01:16;;;;;;;1.15;0.40;;;22.10;25.80;;;;;;5053112;28;20040;-53
2021/04/13 04:03:45;;;;;;;0.73;0.30;;;22.10;25.80;;;;;;5051141;28;20029;-53
2021/04/13 04:06:16;;;;;;;0.93;0.45;;;22.00;25.80;;;;;;5053551;28;20032;-53
2021/04/13 04:08:52;;;;;;;1.73;0.70;;;22.00;25.80;;;;;;5044582;28;20028;-57
2021/04/13 04:11:30;;;;;;;1.35;0.40;;;22.00;25.80;;;;;;5055321;28;20049;-55
2021/04/13 04:13:56;;;;;;;0.65;0.35;;;22.00;25.80;;;;;;5027962;28;20029;-51
2021/04/13 04:16:28;;;;;;;1.15;0.40;;;22.00;25.80;;;;;;5055632;28;20498;-52
2021/04/13 04:18:55;;;;;;;1.02;0.40;;;22.00;25.70;;;;;;5050167;28;20441;-52
2021/04/13 04:21:41;;;;;;;1.10;0.32;;;22.00;25.70;;;;;;5050253;28;20029;-53
2021/04/13 04:24:30;;;;;;;0.93;0.50;;;22.00;25.70;;;;;;5037105;28;20033;-50
2021/04/13 04:27:02;;;;;;;0.98;0.50;;;22.00;25.70;;;;;;5036231;28;20036;-54
2021/04/13 04:30:06;;;;;;;1.88;0.60;;;22.00;25.70;;;;;;5038907;28;20021;-56
2021/04/13 04:32:31;;;;;;;0.43;0.35;;;22.00;25.70;;;;;;5033731;28;20053;-57
2021/04/13 04:35:00;;;;;;;1.17;0.50;;;22.00;25.70;;;;;;5054827;28;20445;-52
2021/04/13 04:37:50;;;;;;;1.60;0.52;;;22.00;25.70;;;;;;5045634;28;20044;-54
2021/04/13 04:40:27;;;;;;;1.08;0.40;;;22.00;25.80;;;;;;5035061;28;20119;-56
2021/04/13 04:42:58;;;;;;;1.00;0.45;;;22.00;25.80;;;;;;5027479;28;20028;-56
2021/04/13 04:45:45;;;;;;;1.67;0.50;;;22.00;25.80;;;;;;5052103;28;20033;-53
2021/04/13 04:51:07;;;;;;;0.95;0.60;;;22.00;25.80;;;;;;5103426;27;784323;-52
2021/04/13 04:53:34;;;;;;;1.38;0.57;;;21.90;25.80;;;;;;5097341;28;20032;-53
2021/04/13 04:56:02;;;;;;;0.60;0.38;;;21.90;25.80;;;;;;5095450;28;20028;-52
2021/04/13 04:58:28;;;;;;;1.70;0.60;;;21.90;25.80;;;;;;5100464;28;20032;-54
2021/04/13 05:00:55;;;;;;;0.95;0.50;;;21.90;25.80;;;;;;5094742;28;20673;-56
2021/04/13 05:03:22;;;;;;;1.38;0.57;;;22.00;25.80;;;;;;5101077;28;20043;-53
2021/04/13 05:05:48;;;;;;;1.67;0.47;;;21.90;25.80;;;;;;5103451;28;20127;-48
2021/04/13 05:08:15;;;;;;;0.77;0.50;;;21.90;25.80;;;;;;5111210;28;20035;-55
2021/04/13 05:10:41;;;;;;;1.38;0.40;;;22.00;25.90;;;;;;5100496;28;20324;-50
2021/04/13 05:13:07;;;;;;;1.73;0.50;;;21.90;25.80;;;;;;5103503;28;20047;-55
2021/04/13 05:15:33;;;;;;;0.57;0.30;;;21.90;25.80;;;;;;5110525;28;20023;-56
2021/04/13 05:18:00;;;;;;;1.25;0.50;;;21.90;25.80;;;;;;5093402;28;20024;-53
2021/04/13 05:20:26;;;;;;;0.40;0.30;;;21.90;25.80;;;;;;5098449;28;20038;-54
2021/04/13 05:22:53;;;;;;;1.52;0.40;;;21.90;25.80;;;;;;5103159;28;20024;-51
2021/04/13 05:25:19;;;;;;;1.58;0.50;;;21.90;25.80;;;;;;5095109;28;20029;-49
2021/04/13 05:27:46;;;;;;;1.65;0.60;;;21.90;25.90;;;;;;5106744;28;20038;-56
2021/04/13 05:30:13;;;;;;;1.02;0.50;;;21.90;25.90;;;;;;5091493;28;20067;-53
2021/04/13 05:32:40;;;;;;;1.35;0.50;;;21.90;25.90;;;;;;5102601;28;20339;-53
2021/04/13 05:35:07;;;;;;;0.52;0.40;;;21.90;25.90;;;;;;5105266;28;20044;-51
2021/04/13 05:37:34;;;;;;;0.77;0.45;;;21.80;25.80;;;;;;5098159;28;20032;-53
2021/04/13 05:40:02;;;;;;;1.10;0.45;;;21.90;25.90;;;;;;5106827;28;20020;-56
2021/04/13 05:42:33;;;;;;;0.95;0.50;;;21.90;25.90;;;;;;5092241;28;20089;-51
2021/04/13 05:44:59;;;;;;;1.13;0.40;;;21.90;25.90;;;;;;5106195;28;20035;-56
2021/04/13 05:47:29;;;;;;;1.77;0.60;;;21.80;25.90;;;;;;5093287;28;20036;-52
2021/04/13 05:49:56;;;;;;;1.13;0.40;;;21.80;25.90;;;;;;5100110;28;20498;-53
2021/04/13 05:52:22;;;;;;;0.75;0.40;;;21.80;25.90;;;;;;5088279;28;20032;-56
2021/04/13 05:54:48;;;;;;;0.70;0.40;;;21.80;25.90;;;;;;5108632;28;20339;-56
2021/04/13 05:57:19;;;;;;;0.70;0.50;;;21.80;25.90;;;;;;5110612;28;20328;-53
2021/04/13 05:59:52;;;;;;;0.82;0.40;;;21.80;25.90;;;;;;5109726;28;20089;-57
2021/04/13 06:02:18;;;;;;;0.75;0.47;;;21.80;25.90;;;;;;5094311;28;20068;-54
2021/04/13 06:04:44;;;;;;;1.50;0.73;;;21.80;25.90;;;;;;5067080;28;20063;-51
2021/04/13 06:07:10;;;;;;;0.80;0.40;;;21.80;25.90;;;;;;5082851;28;20062;-51
2021/04/13 06:09:35;;;;;;;0.60;0.32;;;21.80;25.90;;;;;;5080425;28;20115;-53
2021/04/13 06:12:02;;;;;;;0.90;0.40;;;21.80;25.90;;;;;;5094579;28;20170;-55
2021/04/13 06:14:29;;;;;;;1.02;0.40;;;21.80;26.00;;;;;;5086732;28;20028;-55
2021/04/13 06:16:55;;;;;;;1.35;0.60;;;21.80;26.00;;;;;;5091499;28;20112;-53
2021/04/13 06:19:21;;;;;;;0.70;0.32;;;21.80;26.00;;;;;;5076720;28;20097;-53
2021/04/13 06:21:48;;;;;;;0.60;0.40;;;21.80;26.00;;;;;;5086844;28;20040;-57
2021/04/13 06:24:14;;;;;;;1.85;0.60;;;21.80;26.00;;;;;;5095393;28;20043;-56
2021/04/13 06:26:40;;;;;;;0.98;0.40;;;21.80;26.00;;;;;;5084707;28;20020;-57
2021/04/13 06:29:06;;;;;;;1.23;0.40;;;21.80;26.00;;;;;;5090268;28;20044;-52
2021/04/13 06:31:32;;;;;;;2.65;0.57;;;21.80;26.00;;;;;;5083725;28;20039;-52
2021/04/13 06:33:57;;;;;;;1.00;0.50;;;21.80;26.10;;;;;;5095064;28;20036;-51
2021/04/13 06:36:27;;;;;;;1.38;0.52;;;21.80;26.20;;;;;;5094869;28;20111;-56
2021/04/13 06:38:53;;;;;;;1.23;0.60;;;21.80;26.40;;;;;;5081423;28;20028;-58
2021/04/13 06:41:33;;;;;;;1.90;0.70;;;21.90;26.50;;;;;;5078594;28;20043;-56
2021/04/13 06:44:26;;;;;;;0.85;0.45;;;21.90;26.60;;;;;;5076969;28;20029;-58
2021/04/13 06:47:13;;;;;;;3.33;0.95;;;22.00;26.60;;;;;;5058109;28;20040;-58
2021/04/13 06:49:38;;;;;;;2.40;1.60;;;22.10;26.60;;;;;;5058851;28;20107;-54
2021/04/13 06:52:19;;;;;;;3.53;2.42;;;22.20;26.60;;;;;;5056714;28;20036;-53
2021/04/13 06:55:22;;;;;;;5.05;3.35;;;22.30;26.50;;;;;;5063044;28;20052;-53
2021/04/13 06:57:53;;;;;;;6.28;3.95;;;22.40;26.40;;;;;;5075517;28;20070;-56
2021/04/13 07:00:25;;;;;;;5.65;4.38;;;22.60;26.40;;;;;;5086673;28;20081;-56
2021/04/13 07:03:08;;;;;;;6.47;4.43;;;22.70;26.40;;;;;;5091038;28;20039;-54
2021/04/13 07:06:04;;;;;;;9.02;5.65;;;22.80;26.30;;;;;;5092885;28;20534;-57
2021/04/13 07:08:38;;;;;;;8.68;6.47;;;22.90;26.30;;;;;;5079020;28;20024;-55
2021/04/13 07:11:26;;;;;;;11.02;6.70;;;22.90;26.30;;;;;;5080847;28;20047;-51
2021/04/13 07:14:03;;;;;;;8.55;6.13;;;23.00;26.30;;;;;;5072870;28;20043;-58
2021/04/13 07:16:40;;;;;;;10.43;7.25;;;23.10;26.30;;;;;;5090832;28;20320;-55
2021/04/13 07:19:17;;;;;;;11.32;8.13;;;23.20;26.20;;;;;;5077795;28;20043;-52
2021/04/13 07:21:54;;;;;;;12.35;8.90;;;23.30;26.30;;;;;;5086012;28;20032;-56
2021/04/13 07:24:44;;;;;;;11.45;8.80;;;23.30;26.20;;;;;;5072520;28;20035;-57
2021/04/13 07:27:17;;;;;;;11.65;8.65;;;23.30;26.20;;;;;;5095663;28;20119;-55
2021/04/13 07:30:16;;;;;;;14.02;10.00;;;23.40;26.20;;;;;;5091504;28;20047;-51
2021/04/13 07:32:42;;;;;;;13.68;10.15;;;23.50;26.20;;;;;;5053036;28;20048;-51
2021/04/13 07:35:14;;;;;;;14.18;10.02;;;23.50;26.30;;;;;;5081032;28;20036;-55
2021/04/13 07:37:50;;;;;;;17.08;10.75;;;23.50;26.40;;;;;;5076114;28;20439;-54
2021/04/13 07:40:27;;;;;;;13.13;9.95;;;23.50;26.50;;;;;;5087883;28;20027;-51
2021/04/13 07:43:06;;;;;;;13.88;10.32;;;23.60;26.70;;;;;;5075855;28;20020;-56
2021/04/13 07:45:41;;;;;;;14.50;10.45;;;23.60;26.70;;;;;;5076116;28;20425;-56
2021/04/13 07:48:20;;;;;;;12.50;9.60;;;23.60;26.60;;;;;;5069096;28;20096;-52
2021/04/13 07:51:04;;;;;;;13.63;9.68;;;23.60;26.60;;;;;;5089630;28;20059;-55
2021/04/13 07:53:29;;;;;;;13.77;10.23;;;23.70;26.50;;;;;;5087978;28;20040;-53
2021/04/13 07:56:02;;;;;;;14.65;10.68;;;23.60;26.40;;;;;;5086929;28;20040;-51
2021/04/13 07:58:46;;;;;;;15.95;10.90;;;23.70;26.90;;;;;;5074799;28;20021;-54
2021/04/13 08:01:12;;;;;;;13.07;10.05;;;23.70;26.40;;;;;;5086138;28;20137;-55
2021/04/13 08:03:38;;;;;;;13.68;10.25;;;23.70;26.30;;;;;;5066077;28;20039;-54
2021/04/13 08:06:26;;;;;;;12.85;9.07;;;23.70;26.30;;;;;;5076633;28;20032;-52
2021/04/13 08:09:14;;;;;;;12.20;8.73;;;23.60;26.20;;;;;;5064984;28;20133;-57
2021/04/13 08:12:11;;;;;;;11.02;7.70;;;23.60;26.00;;;;;;5054272;28;20029;-52
2021/04/13 08:15:02;;;;;;;10.80;7.95;;;23.60;26.00;;;;;;5064407;28;20056;-52
2021/04/13 08:17:54;;;;;;;10.50;7.50;;;23.60;25.90;;;;;;5048433;28;20051;-55
2021/04/13 08:20:33;;;;;;;11.63;8.13;;;23.60;25.80;;;;;;5059919;28;20035;-59
2021/04/13 08:23:03;;;;;;;10.88;7.95;;;23.50;25.70;;;;;;5055381;28;20471;-58
2021/04/13 08:25:37;;;;;;;11.43;8.02;;;23.50;25.70;;;;;;5064287;28;20338;-53
2021/04/13 08:28:11;;;;;;;;;;;23.50;25.60;;;;;;5069973;28;20036;-55
2021/04/13 08:32:49;;;;;;;8.57;6.22;;;23.40;25.60;;;;;;5069543;28;19916;-58
2021/04/13 08:34:08;;;;;;;8.48;5.85;;;23.40;25.50;;;;;;5071428;28;20170;-57
2021/04/13 08:37:05;;;;;;;9.20;6.18;;;23.40;25.50;;;;;;5063813;28;20104;-60
2021/04/13 08:39:42;;;;;;;9.68;6.40;;;23.50;25.40;;;;;;5064964;28;20033;-59
2021/04/13 08:42:27;;;;;;;9.05;6.22;;;23.50;25.40;;;;;;5063091;28;20025;-58
2021/04/13 08:44:58;;;;;;;;;;;23.50;25.30;;;;;;5069632;28;20040;-58
2021/04/13 08:47:46;;;;;;;9.25;6.25;;;23.50;25.30;;;;;;5066518;28;19916;-51
2021/04/13 08:50:31;;;;;;;8.65;6.38;;;23.40;25.30;;;;;;5071717;28;20098;-57
2021/04/13 08:53:05;;;;;;;9.95;7.43;;;23.40;25.30;;;;;;5063709;28;20036;-56
2021/04/13 08:55:36;;;;;;;13.07;8.90;;;23.40;25.40;;;;;;5070520;28;20050;-54
2021/04/13 08:58:19;;;;;;;12.50;9.32;;;23.40;25.40;;;;;;5073206;28;20033;-59
2021/04/13 09:00:46;;;;;;;14.95;10.27;;;23.40;25.40;;;;;;5073697;28;20024;-54
2021/04/13 09:03:15;;;;;;;17.77;13.02;;;23.40;25.50;;;;;;5074889;28;20451;-52
2021/04/13 09:05:42;;;;;;;18.77;13.20;;;23.40;25.50;;;;;;5090324;28;20055;-55
2021/04/13 09:08:11;;;;;;;17.52;12.25;;;23.40;25.50;;;;;;5058608;28;20115;-53
2021/04/13 09:11:18;;;;;;;15.55;11.70;;;23.40;25.40;;;;;;5074717;28;20080;-52
2021/04/13 09:14:02;;;;;;;16.17;11.85;;;23.40;25.40;;;;;;5052482;28;20117;-56
2021/04/13 09:16:32;;;;;;;17.33;11.75;;;23.50;25.30;;;;;;5074226;28;20042;-56
2021/04/13 09:19:05;;;;;;;13.30;9.68;;;23.40;25.30;;;;;;5094106;28;20032;-55
2021/04/13 09:21:31;;;;;;;14.93;10.38;;;23.40;25.20;;;;;;5088103;28;20085;-57
2021/04/13 09:24:15;;;;;;;12.23;9.35;;;23.40;25.10;;;;;;5092214;28;20043;-55
2021/04/13 09:27:10;;;;;;;13.20;9.63;;;23.40;25.10;;;;;;5094390;28;20024;-54
2021/04/13 09:29:54;;;;;;;12.25;8.50;;;23.30;25.00;;;;;;5039773;28;20050;-59
2021/04/13 09:32:26;;;;;;;11.47;8.10;;;23.30;24.90;;;;;;5080784;28;20344;-56
2021/04/13 09:35:16;;;;;;;11.88;8.23;;;23.30;24.90;;;;;;5073946;28;20300;-54
2021/04/13 09:38:19;;;;;;;11.43;7.97;;;23.30;25.40;;;;;;5091619;28;20039;-56
2021/04/13 09:40:48;;;;;;;11.20;7.30;;;23.30;24.80;;;;;;5077442;28;20355;-51
2021/04/13 09:43:37;;;;;;;11.40;7.63;;;23.30;24.80;;;;;;5086265;28;20031;-54
2021/04/13 09:46:15;;;;;;;9.40;7.03;;;23.30;24.80;;;;;;5082854;28;20119;-57
2021/04/13 09:49:02;;;;;;;10.68;7.45;;;23.30;24.70;;;;;;5079843;28;20032;-56
2021/04/13 09:51:37;;;;;;;11.27;7.53;;;23.30;24.70;;;;;;5091003;28;20055;-58
2021/04/13 09:54:21;;;;;;;10.68;7.47;;;23.30;24.60;;;;;;5085616;28;20517;-55
2021/04/13 09:57:05;;;;;;;9.73;6.93;;;23.30;24.60;;;;;;5091244;28;20168;-58
2021/04/13 09:59:42;;;;;;;9.77;7.30;;;23.20;24.50;;;;;;5087669;28;20036;-58
2021/04/13 10:02:39;;;;;;;8.68;6.32;;;23.20;24.40;;;;;;5076946;28;20459;-57
2021/04/13 10:05:16;;;;;;;9.80;6.55;;;23.20;24.40;;;;;;5076078;28;20440;-58
2021/04/13 10:08:01;;;;;;;8.32;6.45;;;23.20;24.40;;;;;;5094058;28;20414;-57
2021/04/13 10:10:57;;;;;;;9.88;6.80;;;23.20;24.30;;;;;;5077375;28;20129;-58
2021/04/13 10:14:12;;;;;;;9.77;6.35;;;23.20;24.30;;;;;;5076994;28;20041;-58
2021/04/13 10:16:38;;;;;;;9.60;6.15;;;23.20;24.20;;;;;;5075812;28;20094;-56
2021/04/13 10:19:25;;;;;;;9.65;6.75;;;23.20;24.20;;;;;;5094990;28;20990;-60
2021/04/13 10:22:30;;;;;;;9.55;7.03;;;23.10;24.20;;;;;;5084705;28;20067;-58
2021/04/13 10:25:20;;;;;;;9.57;6.47;;;23.20;24.10;;;;;;5080563;28;20033;-55
2021/04/13 10:28:03;;;;;;;8.23;6.32;;;23.20;24.20;;;;;;5087575;28;20043;-58
2021/04/13 10:30:56;;;;;;;9.00;6.88;;;23.10;24.10;;;;;;5083307;28;20051;-55
2021/04/13 10:33:59;;;;;;;10.93;6.85;;;23.10;24.10;;;;;;5088444;28;20050;-56
2021/04/13 10:36:43;;;;;;;9.50;6.30;;;23.10;24.00;;;;;;5066795;28;20029;-55
2021/04/13 10:39:43;;;;;;;8.23;6.25;;;23.10;24.00;;;;;;5093558;28;20058;-57
2021/04/13 10:42:45;;;;;;;7.90;5.75;;;23.10;23.90;;;;;;5012010;28;20045;-57
2021/04/13 10:45:30;;;;;;;8.75;5.97;;;23.10;24.40;;;;;;5070328;28;20050;-52
2021/04/13 10:48:14;;;;;;;8.27;5.78;;;23.10;23.90;;;;;;5055886;28;20035;-53
2021/04/13 10:51:06;;;;;;;11.90;7.93;;;23.00;23.80;;;;;;5062598;28;20048;-51
2021/04/13 10:54:07;;;;;;;23.85;17.83;;;23.00;23.90;;;;;;5032877;28;20368;-57
2021/04/13 10:57:10;;;;;;;39.03;28.10;;;23.00;24.30;;;;;;4987112;28;20045;-52
2021/04/13 10:59:54;;;;;;;45.75;33.15;;;23.00;24.80;;;;;;5065618;28;20029;-48
2021/04/13 11:02:41;;;;;;;51.20;35.05;;;23.00;25.10;;;;;;5082724;28;20036;-53
2021/04/13 11:05:29;;;;;;;46.83;32.00;;;23.00;25.40;;;;;;5083600;28;20041;-56
2021/04/13 11:08:31;;;;;;;44.38;32.47;;;23.00;25.50;;;;;;5058417;28;20454;-53
2021/04/13 11:11:03;;;;;;;43.75;31.13;;;23.00;25.60;;;;;;5076446;28;20107;-51
2021/04/13 11:14:01;;;;;;;44.05;33.08;;;23.00;25.60;;;;;;5095279;28;20036;-53
2021/04/13 11:16:51;;;;;;;42.17;32.83;;;23.00;25.70;;;;;;5075472;28;20192;-48
2021/04/13 11:19:25;;;;;;;43.17;32.53;;;23.00;25.70;;;;;;5076264;28;20028;-55
2021/04/13 11:22:21;;;;;;;43.93;31.83;;;23.00;25.80;;;;;;5082214;28;20145;-53
2021/04/13 11:25:02;;;;;;;41.15;30.55;;;23.00;25.80;;;;;;5080751;28;20367;-53
2021/04/13 11:27:43;;;;;;;41.42;30.60;;;23.00;25.80;;;;;;5094834;28;20032;-52
2021/04/13 11:31:01;;;;;;;42.70;31.00;;;23.00;25.90;;;;;;5083750;28;20064;-53
2021/04/13 11:33:59;;;;;;;42.75;32.15;;;23.00;26.00;;;;;;5095459;28;20097;-53
2021/04/13 11:37:13;;;;;;;44.05;31.70;;;23.00;26.00;;;;;;5083564;28;20025;-45
2021/04/13 11:40:01;;;;;;;40.70;29.92;;;23.10;26.10;;;;;;5060321;28;20159;-48
2021/04/13 11:42:29;;;;;;;41.05;29.40;;;23.10;26.10;;;;;;5078131;28;20433;-52
2021/04/13 11:45:13;;;;;;;36.65;27.42;;;23.10;26.10;;;;;;5062560;28;20100;-49
2021/04/13 11:47:48;;;;;;;34.65;24.95;;;23.10;26.00;;;;;;5082210;28;20035;-53
2021/04/13 11:50:29;;;;;;;30.88;23.45;;;23.10;25.90;;;;;;5078028;28;20040;-50
2021/04/13 11:53:13;;;;;;;31.08;21.80;;;23.10;25.80;;;;;;5080558;28;20036;-53
2021/04/13 11:55:49;;;;;;;27.00;19.75;;;23.20;25.80;;;;;;5081309;28;20078;-48
2021/04/13 11:58:24;;;;;;;24.27;17.58;;;23.20;25.70;;;;;;5078475;28;20043;-50
2021/04/13 12:01:11;;;;;;;22.50;16.00;;;23.20;25.60;;;;;;5076735;28;20039;-49
2021/04/13 12:03:38;;;;;;;22.52;15.45;;;23.20;25.50;;;;;;5082428;28;20039;-48
2021/04/13 12:06:10;;;;;;;21.63;16.17;;;23.30;25.50;;;;;;5062978;28;20371;-48
2021/04/13 12:08:35;;;;;;;31.45;21.00;;;23.20;25.40;;;;;;5080856;28;20069;-52
2021/04/13 12:11:10;;;;;;;33.80;23.77;;;23.30;25.50;;;;;;5075353;28;20036;-52
2021/04/13 12:13:40;;;;;;;31.70;22.90;;;23.30;25.60;;;;;;5080639;28;20039;-50
2021/04/13 12:16:08;;;;;;;35.08;24.50;;;23.30;25.60;;;;;;5084931;28;20107;-49
2021/04/13 12:18:37;;;;;;;37.17;26.75;;;23.30;25.60;;;;;;5080811;28;20021;-49
2021/04/13 12:21:21;;;;;;;41.63;27.65;;;23.40;25.80;;;;;;5083806;28;20119;-49
2021/04/13 12:24:42;;;;;;;38.08;28.80;;;23.40;25.90;;;;;;5081123;28;20032;-49
2021/04/13 12:27:26;;;;;;;39.38;28.67;;;23.40;26.00;;;;;;5078866;28;20032;-51
2021/04/13 12:30:13;;;;;;;37.78;28.75;;;23.50;26.10;;;;;;5080689;28;20129;-47
2021/04/13 12:32:45;;;;;;;40.63;29.30;;;23.50;26.10;;;;;;5079815;28;20047;-51
2021/04/13 12:35:11;;;;;;;42.42;29.55;;;23.50;26.10;;;;;;5083011;28;20115;-52
2021/04/13 12:37:48;;;;;;;41.08;30.90;;;23.50;26.10;;;;;;5078957;28;20024;-49
2021/04/13 12:40:16;;;;;;;43.20;31.58;;;23.50;26.00;;;;;;5077288;28;20130;-48
2021/04/13 12:42:51;;;;;;;42.03;30.40;;;23.50;26.00;;;;;;5078875;28;20036;-48
2021/04/13 12:45:22;;;;;;;41.20;30.20;;;23.50;26.00;;;;;;5083025;28;20032;-49
2021/04/13 12:48:20;;;;;;;44.30;31.00;;;23.50;25.90;;;;;;5079530;28;20036;-49
2021/04/13 12:51:06;;;;;;;40.65;29.15;;;23.50;25.80;;;;;;5064024;28;20044;-51
2021/04/13 12:53:32;;;;;;;38.28;28.60;;;23.50;25.70;;;;;;5079896;28;20039;-47
2021/04/13 12:56:26;;;;;;;40.45;29.95;;;23.50;25.70;;;;;;5080931;28;20021;-52
2021/04/13 12:59:07;;;;;;;43.03;31.33;;;23.50;25.70;;;;;;5079224;28;20020;-51
2021/04/13 13:01:41;;;;;;;41.90;30.75;;;23.50;25.70;;;;;;5080154;28;20074;-55
2021/04/13 13:04:12;;;;;;;41.38;30.38;;;23.50;25.80;;;;;;5081254;28;20028;-50
2021/04/13 13:06:40;;;;;;;40.42;30.23;;;23.50;25.70;;;;;;5082463;28;20066;-58
2021/04/13 13:09:09;;;;;;;38.92;28.38;;;23.50;25.70;;;;;;5081479;28;20024;-49
2021/04/13 13:11:39;;;;;;;37.78;28.92;;;23.50;25.60;;;;;;5081816;28;20044;-48
2021/04/13 13:14:06;;;;;;;39.95;30.30;;;23.50;25.60;;;;;;5068604;28;20035;-49
2021/04/13 13:16:32;;;;;;;40.05;28.30;;;23.50;25.60;;;;;;5082071;28;20082;-48
2021/04/13 13:18:59;;;;;;;39.15;28.60;;;23.50;25.50;;;;;;5085073;28;20425;-52
2021/04/13 13:21:29;;;;;;;38.22;29.42;;;23.50;25.40;;;;;;5066316;28;20039;-49
2021/04/13 13:24:14;;;;;;;38.10;28.10;;;23.50;25.40;;;;;;5085330;28;20055;-50
2021/04/13 13:26:40;;;;;;;40.15;29.65;;;23.50;25.40;;;;;;5069489;28;20040;-53
2021/04/13 13:29:11;;;;;;;40.55;29.65;;;23.50;25.50;;;;;;5063256;28;20374;-52
2021/04/13 13:31:38;;;;;;;44.58;33.20;;;23.50;25.50;;;;;;5060197;28;20048;-55
2021/04/13 13:34:10;;;;;;;43.78;31.98;;;23.50;25.50;;;;;;5059230;28;20059;-56
2021/04/13 13:36:38;;;;;;;45.05;34.22;;;23.50;25.50;;;;;;5064753;28;20032;-52
2021/04/13 13:39:27;;;;;;;46.30;34.25;;;23.50;25.60;;;;;;5062573;28;20017;-49